sensor_id;sensor_type;location;lat;lon;timestamp;P1;durP1;ratioP1;P2;durP2;ratioP2
71353;SDS011;59393;51.652;4.864;2022-12-07T00:00:05;6.05;;;2.28;;
71353;SDS011;59393;51.652;4.864;2022-12-07T00:02:31;8.65;;;2.53;;
71353;SDS011;59393;51.652;4.864;2022-12-07T00:04:57;8.93;;;2.33;;
71353;SDS011;59393;51.652;4.864;2022-12-07T00:07:23;9.82;;;2.55;;
71353;SDS011;59393;51.652;4.864;2022-12-07T00:09:49;7.95;;;2.22;;
71353;SDS011;59393;51.652;4.864;2022-12-07T00:12:15;6.40;;;2.67;;
71353;SDS011;59393;51.652;4.864;2022-12-07T00:14:41;11.63;;;3.03;;
71353;SDS011;59393;51.652;4.864;2022-12-07T00:17:07;8.52;;;2.72;;
71353;SDS011;59393;51.652;4.864;2022-12-07T00:19:33;7.07;;;2.55;;
71353;SDS011;59393;51.652;4.864;2022-12-07T00:21:59;9.20;;;3.43;;
71353;SDS011;59393;51.652;4.864;2022-12-07T00:24:25;8.90;;;3.05;;
71353;SDS011;59393;51.652;4.864;2022-12-07T00:26:50;7.05;;;2.67;;
71353;SDS011;59393;51.652;4.864;2022-12-07T00:29:18;8.77;;;2.28;;
71353;SDS011;59393;51.652;4.864;2022-12-07T00:31:44;7.90;;;2.47;;
71353;SDS011;59393;51.652;4.864;2022-12-07T00:34:14;11.30;;;2.90;;
71353;SDS011;59393;51.652;4.864;2022-12-07T00:36:40;9.25;;;3.00;;
71353;SDS011;59393;51.652;4.864;2022-12-07T00:39:06;8.55;;;1.70;;
71353;SDS011;59393;51.652;4.864;2022-12-07T00:41:33;5.37;;;2.13;;
71353;SDS011;59393;51.652;4.864;2022-12-07T00:43:59;7.85;;;1.85;;
71353;SDS011;59393;51.652;4.864;2022-12-07T00:46:26;6.22;;;1.98;;
71353;SDS011;59393;51.652;4.864;2022-12-07T00:48:52;6.35;;;2.03;;
71353;SDS011;59393;51.652;4.864;2022-12-07T00:51:19;10.65;;;1.90;;
71353;SDS011;59393;51.652;4.864;2022-12-07T00:53:45;10.30;;;1.80;;
71353;SDS011;59393;51.652;4.864;2022-12-07T00:56:12;7.28;;;2.00;;
71353;SDS011;59393;51.652;4.864;2022-12-07T00:58:38;9.23;;;1.95;;
71353;SDS011;59393;51.652;4.864;2022-12-07T01:01:05;6.13;;;2.03;;
71353;SDS011;59393;51.652;4.864;2022-12-07T01:03:31;8.67;;;1.70;;
71353;SDS011;59393;51.652;4.864;2022-12-07T01:05:57;5.28;;;1.85;;
71353;SDS011;59393;51.652;4.864;2022-12-07T01:08:24;5.90;;;1.52;;
71353;SDS011;59393;51.652;4.864;2022-12-07T01:10:58;8.02;;;1.80;;
71353;SDS011;59393;51.652;4.864;2022-12-07T01:13:24;5.88;;;1.13;;
71353;SDS011;59393;51.652;4.864;2022-12-07T01:15:50;5.50;;;1.53;;
71353;SDS011;59393;51.652;4.864;2022-12-07T01:18:16;4.90;;;1.67;;
71353;SDS011;59393;51.652;4.864;2022-12-07T01:20:42;9.15;;;1.90;;
71353;SDS011;59393;51.652;4.864;2022-12-07T01:23:08;8.48;;;1.60;;
71353;SDS011;59393;51.652;4.864;2022-12-07T01:25:34;8.70;;;1.73;;
71353;SDS011;59393;51.652;4.864;2022-12-07T01:28:00;4.95;;;1.35;;
71353;SDS011;59393;51.652;4.864;2022-12-07T01:30:26;3.92;;;1.20;;
71353;SDS011;59393;51.652;4.864;2022-12-07T01:32:52;6.95;;;1.65;;
71353;SDS011;59393;51.652;4.864;2022-12-07T01:35:18;4.47;;;1.27;;
71353;SDS011;59393;51.652;4.864;2022-12-07T01:37:44;4.55;;;1.50;;
71353;SDS011;59393;51.652;4.864;2022-12-07T01:40:10;6.65;;;1.52;;
71353;SDS011;59393;51.652;4.864;2022-12-07T01:42:36;8.03;;;1.50;;
71353;SDS011;59393;51.652;4.864;2022-12-07T01:47:44;6.60;;;1.50;;
71353;SDS011;59393;51.652;4.864;2022-12-07T01:50:12;8.27;;;1.50;;
71353;SDS011;59393;51.652;4.864;2022-12-07T01:52:38;3.60;;;1.50;;
71353;SDS011;59393;51.652;4.864;2022-12-07T01:55:09;7.00;;;1.60;;
71353;SDS011;59393;51.652;4.864;2022-12-07T01:57:37;6.07;;;1.27;;
71353;SDS011;59393;51.652;4.864;2022-12-07T02:00:06;11.65;;;1.48;;
71353;SDS011;59393;51.652;4.864;2022-12-07T02:02:33;8.27;;;1.58;;
71353;SDS011;59393;51.652;4.864;2022-12-07T02:05:00;3.15;;;0.98;;
71353;SDS011;59393;51.652;4.864;2022-12-07T02:07:27;4.47;;;1.10;;
71353;SDS011;59393;51.652;4.864;2022-12-07T02:09:53;9.18;;;1.50;;
71353;SDS011;59393;51.652;4.864;2022-12-07T02:12:19;5.60;;;1.60;;
71353;SDS011;59393;51.652;4.864;2022-12-07T02:14:46;9.02;;;1.65;;
71353;SDS011;59393;51.652;4.864;2022-12-07T02:17:14;7.20;;;1.75;;
71353;SDS011;59393;51.652;4.864;2022-12-07T02:19:51;7.77;;;2.33;;
71353;SDS011;59393;51.652;4.864;2022-12-07T02:25:08;9.32;;;2.17;;
71353;SDS011;59393;51.652;4.864;2022-12-07T02:28:12;8.90;;;1.83;;
71353;SDS011;59393;51.652;4.864;2022-12-07T02:30:31;8.05;;;1.88;;
71353;SDS011;59393;51.652;4.864;2022-12-07T02:33:19;8.60;;;2.67;;
71353;SDS011;59393;51.652;4.864;2022-12-07T02:35:59;6.25;;;1.83;;
71353;SDS011;59393;51.652;4.864;2022-12-07T02:38:35;9.50;;;2.25;;
71353;SDS011;59393;51.652;4.864;2022-12-07T02:43:38;10.00;;;2.20;;
71353;SDS011;59393;51.652;4.864;2022-12-07T02:46:10;9.70;;;2.50;;
71353;SDS011;59393;51.652;4.864;2022-12-07T02:48:38;6.63;;;2.20;;
71353;SDS011;59393;51.652;4.864;2022-12-07T02:51:04;6.55;;;1.85;;
71353;SDS011;59393;51.652;4.864;2022-12-07T02:53:35;8.13;;;2.00;;
71353;SDS011;59393;51.652;4.864;2022-12-07T02:56:02;6.95;;;2.42;;
71353;SDS011;59393;51.652;4.864;2022-12-07T02:58:48;10.80;;;2.57;;
71353;SDS011;59393;51.652;4.864;2022-12-07T03:01:24;7.03;;;2.47;;
71353;SDS011;59393;51.652;4.864;2022-12-07T03:03:58;5.15;;;2.30;;
71353;SDS011;59393;51.652;4.864;2022-12-07T03:06:31;9.27;;;2.80;;
71353;SDS011;59393;51.652;4.864;2022-12-07T03:11:33;6.33;;;2.97;;
71353;SDS011;59393;51.652;4.864;2022-12-07T03:14:05;9.55;;;2.58;;
71353;SDS011;59393;51.652;4.864;2022-12-07T03:16:54;8.73;;;2.97;;
71353;SDS011;59393;51.652;4.864;2022-12-07T03:19:21;7.53;;;2.80;;
71353;SDS011;59393;51.652;4.864;2022-12-07T03:22:00;5.47;;;2.50;;
71353;SDS011;59393;51.652;4.864;2022-12-07T03:24:28;8.77;;;2.43;;
71353;SDS011;59393;51.652;4.864;2022-12-07T03:26:56;7.32;;;2.10;;
71353;SDS011;59393;51.652;4.864;2022-12-07T03:29:26;7.82;;;2.70;;
71353;SDS011;59393;51.652;4.864;2022-12-07T03:32:05;7.28;;;2.50;;
71353;SDS011;59393;51.652;4.864;2022-12-07T03:35:06;6.07;;;2.67;;
71353;SDS011;59393;51.652;4.864;2022-12-07T03:37:34;7.00;;;2.67;;
71353;SDS011;59393;51.652;4.864;2022-12-07T03:40:07;11.18;;;2.58;;
71353;SDS011;59393;51.652;4.864;2022-12-07T03:42:33;9.13;;;3.00;;
71353;SDS011;59393;51.652;4.864;2022-12-07T03:45:00;9.05;;;3.15;;
71353;SDS011;59393;51.652;4.864;2022-12-07T03:47:29;6.90;;;2.90;;
71353;SDS011;59393;51.652;4.864;2022-12-07T03:49:59;6.50;;;2.90;;
71353;SDS011;59393;51.652;4.864;2022-12-07T03:52:45;11.50;;;3.05;;
71353;SDS011;59393;51.652;4.864;2022-12-07T03:55:18;10.52;;;3.13;;
71353;SDS011;59393;51.652;4.864;2022-12-07T03:57:45;9.45;;;3.63;;
71353;SDS011;59393;51.652;4.864;2022-12-07T04:00:12;9.23;;;3.50;;
71353;SDS011;59393;51.652;4.864;2022-12-07T04:02:38;9.60;;;2.53;;
71353;SDS011;59393;51.652;4.864;2022-12-07T04:05:05;6.28;;;2.70;;
71353;SDS011;59393;51.652;4.864;2022-12-07T04:07:31;9.07;;;3.13;;
71353;SDS011;59393;51.652;4.864;2022-12-07T04:09:57;7.35;;;3.25;;
71353;SDS011;59393;51.652;4.864;2022-12-07T04:12:23;6.43;;;2.67;;
71353;SDS011;59393;51.652;4.864;2022-12-07T04:14:49;7.22;;;2.50;;
71353;SDS011;59393;51.652;4.864;2022-12-07T04:17:15;6.60;;;2.50;;
71353;SDS011;59393;51.652;4.864;2022-12-07T04:19:41;8.02;;;2.58;;
71353;SDS011;59393;51.652;4.864;2022-12-07T04:22:07;9.98;;;3.42;;
71353;SDS011;59393;51.652;4.864;2022-12-07T04:24:33;8.70;;;2.80;;
71353;SDS011;59393;51.652;4.864;2022-12-07T04:26:59;9.95;;;3.20;;
71353;SDS011;59393;51.652;4.864;2022-12-07T04:29:25;9.82;;;3.20;;
71353;SDS011;59393;51.652;4.864;2022-12-07T04:31:51;6.55;;;2.70;;
71353;SDS011;59393;51.652;4.864;2022-12-07T04:34:18;10.63;;;3.33;;
71353;SDS011;59393;51.652;4.864;2022-12-07T04:36:45;5.78;;;2.42;;
71353;SDS011;59393;51.652;4.864;2022-12-07T04:39:17;9.07;;;2.80;;
71353;SDS011;59393;51.652;4.864;2022-12-07T04:41:43;6.30;;;2.35;;
71353;SDS011;59393;51.652;4.864;2022-12-07T04:44:09;8.80;;;2.42;;
71353;SDS011;59393;51.652;4.864;2022-12-07T04:46:35;9.40;;;2.50;;
71353;SDS011;59393;51.652;4.864;2022-12-07T04:49:01;7.20;;;2.63;;
71353;SDS011;59393;51.652;4.864;2022-12-07T04:51:28;8.95;;;2.22;;
71353;SDS011;59393;51.652;4.864;2022-12-07T04:53:54;7.45;;;2.70;;
71353;SDS011;59393;51.652;4.864;2022-12-07T04:56:21;8.40;;;2.40;;
71353;SDS011;59393;51.652;4.864;2022-12-07T04:58:48;9.07;;;2.63;;
71353;SDS011;59393;51.652;4.864;2022-12-07T05:01:14;9.02;;;2.50;;
71353;SDS011;59393;51.652;4.864;2022-12-07T05:03:41;6.78;;;2.40;;
71353;SDS011;59393;51.652;4.864;2022-12-07T05:06:07;5.05;;;2.22;;
71353;SDS011;59393;51.652;4.864;2022-12-07T05:08:34;6.78;;;1.95;;
71353;SDS011;59393;51.652;4.864;2022-12-07T05:11:00;9.07;;;2.23;;
71353;SDS011;59393;51.652;4.864;2022-12-07T05:13:26;5.38;;;2.30;;
71353;SDS011;59393;51.652;4.864;2022-12-07T05:15:52;11.10;;;3.10;;
71353;SDS011;59393;51.652;4.864;2022-12-07T05:18:18;5.85;;;2.40;;
71353;SDS011;59393;51.652;4.864;2022-12-07T05:20:44;7.18;;;2.65;;
71353;SDS011;59393;51.652;4.864;2022-12-07T05:23:11;8.83;;;2.73;;
71353;SDS011;59393;51.652;4.864;2022-12-07T05:25:37;6.50;;;1.95;;
71353;SDS011;59393;51.652;4.864;2022-12-07T05:28:03;6.90;;;2.38;;
71353;SDS011;59393;51.652;4.864;2022-12-07T05:30:30;6.35;;;2.17;;
71353;SDS011;59393;51.652;4.864;2022-12-07T05:32:56;8.82;;;3.25;;
71353;SDS011;59393;51.652;4.864;2022-12-07T05:35:22;6.80;;;3.10;;
71353;SDS011;59393;51.652;4.864;2022-12-07T05:37:48;8.80;;;2.85;;
71353;SDS011;59393;51.652;4.864;2022-12-07T05:40:14;4.90;;;2.20;;
71353;SDS011;59393;51.652;4.864;2022-12-07T05:42:41;8.35;;;2.45;;
71353;SDS011;59393;51.652;4.864;2022-12-07T05:45:07;6.53;;;2.40;;
71353;SDS011;59393;51.652;4.864;2022-12-07T05:47:34;7.53;;;1.80;;
71353;SDS011;59393;51.652;4.864;2022-12-07T05:50:00;6.93;;;2.17;;
71353;SDS011;59393;51.652;4.864;2022-12-07T05:52:26;5.70;;;2.30;;
71353;SDS011;59393;51.652;4.864;2022-12-07T05:54:52;6.78;;;2.05;;
71353;SDS011;59393;51.652;4.864;2022-12-07T05:57:18;9.93;;;2.77;;
71353;SDS011;59393;51.652;4.864;2022-12-07T05:59:44;12.35;;;2.22;;
71353;SDS011;59393;51.652;4.864;2022-12-07T06:02:11;7.63;;;2.45;;
71353;SDS011;59393;51.652;4.864;2022-12-07T06:04:40;9.55;;;2.33;;
71353;SDS011;59393;51.652;4.864;2022-12-07T06:07:06;5.53;;;2.47;;
71353;SDS011;59393;51.652;4.864;2022-12-07T06:09:33;7.30;;;2.47;;
71353;SDS011;59393;51.652;4.864;2022-12-07T06:11:59;7.47;;;2.20;;
71353;SDS011;59393;51.652;4.864;2022-12-07T06:14:44;8.52;;;2.17;;
71353;SDS011;59393;51.652;4.864;2022-12-07T06:17:11;10.88;;;1.85;;
71353;SDS011;59393;51.652;4.864;2022-12-07T06:19:37;6.90;;;2.50;;
71353;SDS011;59393;51.652;4.864;2022-12-07T06:22:03;6.23;;;2.30;;
71353;SDS011;59393;51.652;4.864;2022-12-07T06:24:30;8.73;;;2.50;;
71353;SDS011;59393;51.652;4.864;2022-12-07T06:26:56;8.50;;;2.10;;
71353;SDS011;59393;51.652;4.864;2022-12-07T06:29:22;9.02;;;2.70;;
71353;SDS011;59393;51.652;4.864;2022-12-07T06:31:48;6.85;;;2.20;;
71353;SDS011;59393;51.652;4.864;2022-12-07T06:34:15;8.63;;;3.17;;
71353;SDS011;59393;51.652;4.864;2022-12-07T06:36:42;8.95;;;2.03;;
71353;SDS011;59393;51.652;4.864;2022-12-07T06:39:09;6.88;;;2.00;;
71353;SDS011;59393;51.652;4.864;2022-12-07T06:41:38;4.68;;;1.80;;
71353;SDS011;59393;51.652;4.864;2022-12-07T06:44:05;5.35;;;1.70;;
71353;SDS011;59393;51.652;4.864;2022-12-07T06:46:31;8.73;;;2.03;;
71353;SDS011;59393;51.652;4.864;2022-12-07T06:48:57;7.38;;;2.08;;
71353;SDS011;59393;51.652;4.864;2022-12-07T06:51:23;8.52;;;2.08;;
71353;SDS011;59393;51.652;4.864;2022-12-07T06:53:49;11.73;;;2.50;;
71353;SDS011;59393;51.652;4.864;2022-12-07T06:56:15;6.15;;;2.20;;
71353;SDS011;59393;51.652;4.864;2022-12-07T06:58:41;7.03;;;2.40;;
71353;SDS011;59393;51.652;4.864;2022-12-07T07:01:14;5.45;;;1.70;;
71353;SDS011;59393;51.652;4.864;2022-12-07T07:03:40;5.45;;;1.85;;
71353;SDS011;59393;51.652;4.864;2022-12-07T07:06:07;4.30;;;1.90;;
71353;SDS011;59393;51.652;4.864;2022-12-07T07:08:33;4.43;;;1.60;;
71353;SDS011;59393;51.652;4.864;2022-12-07T07:10:59;5.72;;;1.92;;
71353;SDS011;59393;51.652;4.864;2022-12-07T07:13:26;11.00;;;1.98;;
71353;SDS011;59393;51.652;4.864;2022-12-07T07:15:52;5.75;;;1.75;;
71353;SDS011;59393;51.652;4.864;2022-12-07T07:18:18;8.38;;;1.80;;
71353;SDS011;59393;51.652;4.864;2022-12-07T07:20:44;8.07;;;2.50;;
71353;SDS011;59393;51.652;4.864;2022-12-07T07:23:10;9.93;;;2.58;;
71353;SDS011;59393;51.652;4.864;2022-12-07T07:25:36;7.45;;;2.13;;
71353;SDS011;59393;51.652;4.864;2022-12-07T07:28:02;6.35;;;2.40;;
71353;SDS011;59393;51.652;4.864;2022-12-07T07:30:29;8.98;;;2.85;;
71353;SDS011;59393;51.652;4.864;2022-12-07T07:32:58;7.57;;;1.87;;
71353;SDS011;59393;51.652;4.864;2022-12-07T07:35:28;9.25;;;2.10;;
71353;SDS011;59393;51.652;4.864;2022-12-07T07:37:55;14.02;;;2.65;;
71353;SDS011;59393;51.652;4.864;2022-12-07T07:40:21;8.85;;;1.95;;
71353;SDS011;59393;51.652;4.864;2022-12-07T07:42:48;7.38;;;2.38;;
71353;SDS011;59393;51.652;4.864;2022-12-07T07:45:14;10.07;;;2.43;;
71353;SDS011;59393;51.652;4.864;2022-12-07T07:47:40;6.20;;;2.22;;
71353;SDS011;59393;51.652;4.864;2022-12-07T07:50:06;5.20;;;2.08;;
71353;SDS011;59393;51.652;4.864;2022-12-07T07:52:32;7.90;;;2.42;;
71353;SDS011;59393;51.652;4.864;2022-12-07T07:54:58;8.77;;;2.10;;
71353;SDS011;59393;51.652;4.864;2022-12-07T07:57:24;5.90;;;1.92;;
71353;SDS011;59393;51.652;4.864;2022-12-07T07:59:50;7.22;;;2.22;;
71353;SDS011;59393;51.652;4.864;2022-12-07T08:02:17;12.45;;;2.40;;
71353;SDS011;59393;51.652;4.864;2022-12-07T08:04:43;8.37;;;2.30;;
71353;SDS011;59393;51.652;4.864;2022-12-07T08:07:10;10.45;;;2.83;;
71353;SDS011;59393;51.652;4.864;2022-12-07T08:09:36;9.68;;;2.75;;
71353;SDS011;59393;51.652;4.864;2022-12-07T08:12:02;11.07;;;2.60;;
71353;SDS011;59393;51.652;4.864;2022-12-07T08:14:31;10.18;;;3.00;;
71353;SDS011;59393;51.652;4.864;2022-12-07T08:16:57;12.03;;;3.43;;
71353;SDS011;59393;51.652;4.864;2022-12-07T08:19:26;13.85;;;4.18;;
71353;SDS011;59393;51.652;4.864;2022-12-07T08:21:52;9.00;;;3.53;;
71353;SDS011;59393;51.652;4.864;2022-12-07T08:24:20;10.20;;;3.22;;
71353;SDS011;59393;51.652;4.864;2022-12-07T08:26:46;11.25;;;2.72;;
71353;SDS011;59393;51.652;4.864;2022-12-07T08:29:15;8.70;;;2.80;;
71353;SDS011;59393;51.652;4.864;2022-12-07T08:31:41;7.60;;;2.50;;
71353;SDS011;59393;51.652;4.864;2022-12-07T08:34:07;10.10;;;2.60;;
71353;SDS011;59393;51.652;4.864;2022-12-07T08:36:36;6.00;;;2.33;;
71353;SDS011;59393;51.652;4.864;2022-12-07T08:39:03;8.40;;;2.65;;
71353;SDS011;59393;51.652;4.864;2022-12-07T08:41:29;11.60;;;2.57;;
71353;SDS011;59393;51.652;4.864;2022-12-07T08:43:58;10.05;;;2.83;;
71353;SDS011;59393;51.652;4.864;2022-12-07T08:46:30;5.57;;;2.65;;
71353;SDS011;59393;51.652;4.864;2022-12-07T08:49:01;15.23;;;3.05;;
71353;SDS011;59393;51.652;4.864;2022-12-07T08:51:27;5.75;;;2.08;;
71353;SDS011;59393;51.652;4.864;2022-12-07T08:53:53;13.60;;;2.60;;
71353;SDS011;59393;51.652;4.864;2022-12-07T08:56:20;12.43;;;3.03;;
71353;SDS011;59393;51.652;4.864;2022-12-07T08:58:47;9.20;;;2.50;;
71353;SDS011;59393;51.652;4.864;2022-12-07T09:01:14;5.55;;;1.83;;
71353;SDS011;59393;51.652;4.864;2022-12-07T09:03:43;8.90;;;2.05;;
71353;SDS011;59393;51.652;4.864;2022-12-07T09:06:09;7.80;;;2.83;;
71353;SDS011;59393;51.652;4.864;2022-12-07T09:08:36;6.90;;;1.98;;
71353;SDS011;59393;51.652;4.864;2022-12-07T09:11:03;10.45;;;2.08;;
71353;SDS011;59393;51.652;4.864;2022-12-07T09:13:29;7.55;;;2.03;;
71353;SDS011;59393;51.652;4.864;2022-12-07T09:15:55;8.25;;;2.25;;
71353;SDS011;59393;51.652;4.864;2022-12-07T09:18:22;5.73;;;2.17;;
71353;SDS011;59393;51.652;4.864;2022-12-07T09:20:49;9.00;;;2.20;;
71353;SDS011;59393;51.652;4.864;2022-12-07T09:23:15;8.13;;;2.30;;
71353;SDS011;59393;51.652;4.864;2022-12-07T09:25:41;10.00;;;2.10;;
71353;SDS011;59393;51.652;4.864;2022-12-07T09:28:07;6.38;;;2.40;;
71353;SDS011;59393;51.652;4.864;2022-12-07T09:30:36;15.13;;;2.17;;
71353;SDS011;59393;51.652;4.864;2022-12-07T09:33:02;4.45;;;1.52;;
71353;SDS011;59393;51.652;4.864;2022-12-07T09:35:28;8.98;;;1.83;;
71353;SDS011;59393;51.652;4.864;2022-12-07T09:37:54;8.90;;;1.85;;
71353;SDS011;59393;51.652;4.864;2022-12-07T09:40:21;8.13;;;1.95;;
71353;SDS011;59393;51.652;4.864;2022-12-07T09:42:48;11.57;;;2.13;;
71353;SDS011;59393;51.652;4.864;2022-12-07T09:45:30;4.85;;;1.67;;
71353;SDS011;59393;51.652;4.864;2022-12-07T09:47:58;14.45;;;2.00;;
71353;SDS011;59393;51.652;4.864;2022-12-07T09:50:25;5.22;;;1.77;;
71353;SDS011;59393;51.652;4.864;2022-12-07T09:52:52;3.17;;;1.35;;
71353;SDS011;59393;51.652;4.864;2022-12-07T09:55:21;10.10;;;1.93;;
71353;SDS011;59393;51.652;4.864;2022-12-07T09:57:48;6.25;;;1.92;;
71353;SDS011;59393;51.652;4.864;2022-12-07T10:00:17;12.07;;;2.30;;
71353;SDS011;59393;51.652;4.864;2022-12-07T10:02:56;12.48;;;2.05;;
71353;SDS011;59393;51.652;4.864;2022-12-07T10:05:39;9.68;;;2.03;;
71353;SDS011;59393;51.652;4.864;2022-12-07T10:08:07;9.73;;;2.30;;
71353;SDS011;59393;51.652;4.864;2022-12-07T10:10:39;7.15;;;1.85;;
71353;SDS011;59393;51.652;4.864;2022-12-07T10:13:10;4.80;;;1.15;;
71353;SDS011;59393;51.652;4.864;2022-12-07T10:23:29;10.02;;;1.30;;
71353;SDS011;59393;51.652;4.864;2022-12-07T10:25:55;5.80;;;0.82;;
71353;SDS011;59393;51.652;4.864;2022-12-07T10:28:21;10.88;;;1.17;;
71353;SDS011;59393;51.652;4.864;2022-12-07T10:31:15;11.63;;;1.73;;
71353;SDS011;59393;51.652;4.864;2022-12-07T10:34:00;6.90;;;1.10;;
71353;SDS011;59393;51.652;4.864;2022-12-07T10:36:36;9.18;;;1.35;;
71353;SDS011;59393;51.652;4.864;2022-12-07T10:39:13;4.50;;;1.50;;
71353;SDS011;59393;51.652;4.864;2022-12-07T10:41:59;6.90;;;1.20;;
71353;SDS011;59393;51.652;4.864;2022-12-07T10:44:29;13.05;;;1.52;;
71353;SDS011;59393;51.652;4.864;2022-12-07T10:52:29;9.07;;;1.40;;
71353;SDS011;59393;51.652;4.864;2022-12-07T10:55:19;8.00;;;1.50;;
71353;SDS011;59393;51.652;4.864;2022-12-07T11:00:22;7.70;;;1.40;;
71353;SDS011;59393;51.652;4.864;2022-12-07T11:02:59;8.57;;;1.70;;
71353;SDS011;59393;51.652;4.864;2022-12-07T11:05:32;8.48;;;1.17;;
71353;SDS011;59393;51.652;4.864;2022-12-07T11:10:41;7.20;;;1.08;;
71353;SDS011;59393;51.652;4.864;2022-12-07T11:15:55;3.03;;;0.75;;
71353;SDS011;59393;51.652;4.864;2022-12-07T11:21:22;6.43;;;1.02;;
71353;SDS011;59393;51.652;4.864;2022-12-07T11:32:04;8.45;;;1.25;;
71353;SDS011;59393;51.652;4.864;2022-12-07T11:34:38;6.70;;;1.20;;
71353;SDS011;59393;51.652;4.864;2022-12-07T11:37:07;7.43;;;1.25;;
71353;SDS011;59393;51.652;4.864;2022-12-07T11:39:40;5.53;;;0.73;;
71353;SDS011;59393;51.652;4.864;2022-12-07T11:42:14;3.75;;;1.17;;
71353;SDS011;59393;51.652;4.864;2022-12-07T11:50:22;5.03;;;0.93;;
71353;SDS011;59393;51.652;4.864;2022-12-07T11:52:59;4.97;;;0.93;;
71353;SDS011;59393;51.652;4.864;2022-12-07T12:00:37;7.03;;;1.05;;
71353;SDS011;59393;51.652;4.864;2022-12-07T12:03:07;7.78;;;1.23;;
71353;SDS011;59393;51.652;4.864;2022-12-07T12:05:34;2.53;;;0.80;;
71353;SDS011;59393;51.652;4.864;2022-12-07T12:16:02;8.53;;;1.10;;
71353;SDS011;59393;51.652;4.864;2022-12-07T12:20:57;2.17;;;0.75;;
71353;SDS011;59393;51.652;4.864;2022-12-07T12:26:08;2.03;;;0.70;;
71353;SDS011;59393;51.652;4.864;2022-12-07T12:33:56;4.35;;;0.80;;
71353;SDS011;59393;51.652;4.864;2022-12-07T12:44:03;3.97;;;1.10;;
71353;SDS011;59393;51.652;4.864;2022-12-07T12:51:42;4.53;;;1.00;;
71353;SDS011;59393;51.652;4.864;2022-12-07T12:54:19;2.17;;;0.68;;
71353;SDS011;59393;51.652;4.864;2022-12-07T13:02:15;4.15;;;0.95;;
71353;SDS011;59393;51.652;4.864;2022-12-07T13:04:51;3.77;;;0.70;;
71353;SDS011;59393;51.652;4.864;2022-12-07T13:10:03;6.40;;;1.15;;
71353;SDS011;59393;51.652;4.864;2022-12-07T13:12:29;3.38;;;0.90;;
71353;SDS011;59393;51.652;4.864;2022-12-07T13:14:56;1.58;;;0.57;;
71353;SDS011;59393;51.652;4.864;2022-12-07T13:24:57;3.88;;;0.90;;
71353;SDS011;59393;51.652;4.864;2022-12-07T13:27:26;4.13;;;0.60;;
71353;SDS011;59393;51.652;4.864;2022-12-07T13:29:53;3.70;;;0.80;;
71353;SDS011;59393;51.652;4.864;2022-12-07T13:32:24;5.10;;;0.80;;
71353;SDS011;59393;51.652;4.864;2022-12-07T13:34:51;6.63;;;0.50;;
71353;SDS011;59393;51.652;4.864;2022-12-07T13:37:27;4.78;;;0.90;;
71353;SDS011;59393;51.652;4.864;2022-12-07T13:39:57;3.17;;;0.90;;
71353;SDS011;59393;51.652;4.864;2022-12-07T13:42:30;5.37;;;0.60;;
71353;SDS011;59393;51.652;4.864;2022-12-07T13:44:57;2.10;;;0.43;;
71353;SDS011;59393;51.652;4.864;2022-12-07T13:50:25;2.17;;;0.70;;
71353;SDS011;59393;51.652;4.864;2022-12-07T13:52:54;5.05;;;0.95;;
71353;SDS011;59393;51.652;4.864;2022-12-07T13:55:20;2.90;;;0.70;;
71353;SDS011;59393;51.652;4.864;2022-12-07T13:57:50;1.52;;;0.60;;
71353;SDS011;59393;51.652;4.864;2022-12-07T14:00:21;2.92;;;0.93;;
71353;SDS011;59393;51.652;4.864;2022-12-07T14:03:30;3.90;;;1.05;;
71353;SDS011;59393;51.652;4.864;2022-12-07T14:05:37;3.63;;;1.05;;
71353;SDS011;59393;51.652;4.864;2022-12-07T14:10:37;2.75;;;0.90;;
71353;SDS011;59393;51.652;4.864;2022-12-07T14:13:22;5.22;;;0.90;;
71353;SDS011;59393;51.652;4.864;2022-12-07T14:15:51;3.63;;;0.82;;
71353;SDS011;59393;51.652;4.864;2022-12-07T14:18:27;3.70;;;0.68;;
71353;SDS011;59393;51.652;4.864;2022-12-07T14:21:03;3.67;;;0.77;;
71353;SDS011;59393;51.652;4.864;2022-12-07T14:23:29;5.07;;;0.88;;
71353;SDS011;59393;51.652;4.864;2022-12-07T14:26:05;2.83;;;0.63;;
71353;SDS011;59393;51.652;4.864;2022-12-07T14:28:33;5.85;;;0.95;;
71353;SDS011;59393;51.652;4.864;2022-12-07T14:31:00;5.72;;;0.90;;
71353;SDS011;59393;51.652;4.864;2022-12-07T14:33:26;6.10;;;1.13;;
71353;SDS011;59393;51.652;4.864;2022-12-07T14:35:54;8.85;;;1.50;;
71353;SDS011;59393;51.652;4.864;2022-12-07T14:38:23;9.13;;;1.63;;
71353;SDS011;59393;51.652;4.864;2022-12-07T14:40:49;5.00;;;1.48;;
71353;SDS011;59393;51.652;4.864;2022-12-07T14:43:16;6.88;;;1.35;;
71353;SDS011;59393;51.652;4.864;2022-12-07T14:45:45;6.80;;;1.60;;
71353;SDS011;59393;51.652;4.864;2022-12-07T14:48:12;1.83;;;0.65;;
71353;SDS011;59393;51.652;4.864;2022-12-07T14:50:41;3.83;;;0.63;;
71353;SDS011;59393;51.652;4.864;2022-12-07T14:53:12;4.70;;;1.38;;
71353;SDS011;59393;51.652;4.864;2022-12-07T14:55:39;4.60;;;1.00;;
71353;SDS011;59393;51.652;4.864;2022-12-07T14:58:05;8.97;;;1.57;;
71353;SDS011;59393;51.652;4.864;2022-12-07T15:00:31;3.25;;;0.95;;
71353;SDS011;59393;51.652;4.864;2022-12-07T15:02:59;3.08;;;0.85;;
71353;SDS011;59393;51.652;4.864;2022-12-07T15:05:25;2.95;;;0.63;;
71353;SDS011;59393;51.652;4.864;2022-12-07T15:07:51;1.50;;;0.55;;
71353;SDS011;59393;51.652;4.864;2022-12-07T15:10:24;4.67;;;0.97;;
71353;SDS011;59393;51.652;4.864;2022-12-07T15:12:54;6.88;;;0.93;;
71353;SDS011;59393;51.652;4.864;2022-12-07T15:15:40;3.97;;;0.90;;
71353;SDS011;59393;51.652;4.864;2022-12-07T15:18:06;7.35;;;1.33;;
71353;SDS011;59393;51.652;4.864;2022-12-07T15:20:35;6.32;;;1.70;;
71353;SDS011;59393;51.652;4.864;2022-12-07T15:23:01;5.60;;;0.90;;
71353;SDS011;59393;51.652;4.864;2022-12-07T15:25:27;3.17;;;0.90;;
71353;SDS011;59393;51.652;4.864;2022-12-07T15:27:53;3.80;;;1.00;;
71353;SDS011;59393;51.652;4.864;2022-12-07T15:30:19;1.80;;;0.70;;
71353;SDS011;59393;51.652;4.864;2022-12-07T15:32:48;5.03;;;0.73;;
71353;SDS011;59393;51.652;4.864;2022-12-07T15:35:15;5.35;;;1.00;;
71353;SDS011;59393;51.652;4.864;2022-12-07T15:37:41;3.17;;;0.90;;
71353;SDS011;59393;51.652;4.864;2022-12-07T15:40:07;4.18;;;1.08;;
71353;SDS011;59393;51.652;4.864;2022-12-07T15:42:35;5.17;;;1.20;;
71353;SDS011;59393;51.652;4.864;2022-12-07T15:45:01;6.72;;;1.00;;
71353;SDS011;59393;51.652;4.864;2022-12-07T15:47:30;2.63;;;0.80;;
71353;SDS011;59393;51.652;4.864;2022-12-07T15:49:56;4.00;;;0.95;;
71353;SDS011;59393;51.652;4.864;2022-12-07T15:52:22;2.05;;;0.80;;
71353;SDS011;59393;51.652;4.864;2022-12-07T15:54:48;7.50;;;1.00;;
71353;SDS011;59393;51.652;4.864;2022-12-07T15:57:14;5.30;;;1.63;;
71353;SDS011;59393;51.652;4.864;2022-12-07T15:59:40;6.47;;;2.17;;
71353;SDS011;59393;51.652;4.864;2022-12-07T16:02:07;3.80;;;1.23;;
71353;SDS011;59393;51.652;4.864;2022-12-07T16:04:35;3.88;;;0.95;;
71353;SDS011;59393;51.652;4.864;2022-12-07T16:07:01;3.77;;;1.47;;
71353;SDS011;59393;51.652;4.864;2022-12-07T16:09:27;7.22;;;1.35;;
71353;SDS011;59393;51.652;4.864;2022-12-07T16:11:53;5.30;;;1.35;;
71353;SDS011;59393;51.652;4.864;2022-12-07T16:14:19;3.85;;;1.30;;
71353;SDS011;59393;51.652;4.864;2022-12-07T16:16:46;8.25;;;1.65;;
71353;SDS011;59393;51.652;4.864;2022-12-07T16:19:12;5.03;;;1.40;;
71353;SDS011;59393;51.652;4.864;2022-12-07T16:21:39;7.20;;;1.58;;
71353;SDS011;59393;51.652;4.864;2022-12-07T16:24:05;6.15;;;1.83;;
71353;SDS011;59393;51.652;4.864;2022-12-07T16:26:31;11.65;;;2.40;;
71353;SDS011;59393;51.652;4.864;2022-12-07T16:28:58;6.80;;;2.20;;
71353;SDS011;59393;51.652;4.864;2022-12-07T16:31:24;5.50;;;1.67;;
71353;SDS011;59393;51.652;4.864;2022-12-07T16:33:52;6.15;;;1.20;;
71353;SDS011;59393;51.652;4.864;2022-12-07T16:36:18;6.63;;;1.40;;
71353;SDS011;59393;51.652;4.864;2022-12-07T16:38:47;7.65;;;1.50;;